Time,TemperatureF,DewpointF,PressureIn,WindDirection,WindDirectionDegrees,WindSpeedMPH,WindSpeedGustMPH,Humidity,HourlyPrecipIn,Conditions,Clouds,dailyrainin,SoftwareType,DateUTC
2013-04-21 00:00:00,61.0,44.8,29.98,East,84,0.0,0.0,55,0.00,,,0.00,WUHU216WMR968SP,2013-04-21 07:00:00,
2013-04-21 00:05:00,60.6,44.9,29.98,East,84,0.0,0.0,56,0.00,,,0.00,WUHU216WMR968SP,2013-04-21 07:05:00,
2013-04-21 00:10:00,60.4,44.7,29.98,East,84,0.0,0.0,56,0.00,,,0.00,WUHU216WMR968SP,2013-04-21 07:10:00,
2013-04-21 00:15:00,60.3,45.1,29.98,East,84,0.0,0.0,57,0.00,,,0.00,WUHU216WMR968SP,2013-04-21 07:15:00,
2013-04-21 00:21:00,60.1,44.9,29.98,East,84,0.0,0.0,57,0.00,,,0.00,WUHU216WMR968SP,2013-04-21 07:21:00,
2013-04-21 00:26:00,59.5,44.4,29.98,East,84,0.0,0.0,57,0.00,,,0.00,WUHU216WMR968SP,2013-04-21 07:26:00,
2013-04-21 00:31:00,59.0,44.3,29.98,East,84,0.0,0.0,58,0.00,,,0.00,WUHU216WMR968SP,2013-04-21 07:31:00,
2013-04-21 00:36:00,58.8,44.6,29.98,East,84,0.0,0.0,59,0.00,,,0.00,WUHU216WMR968SP,2013-04-21 07:36:00,
2013-04-21 00:41:00,58.8,44.6,29.98,East,84,0.0,0.0,59,0.00,,,0.00,WUHU216WMR968SP,2013-04-21 07:41:00,
2013-04-21 00:46:00,58.8,44.2,29.98,East,84,0.0,0.0,58,0.00,,,0.00,WUHU216WMR968SP,2013-04-21 07:46:00,
2013-04-21 00:51:00,59.2,44.5,29.98,East,84,0.0,0.0,58,0.00,,,0.00,WUHU216WMR968SP,2013-04-21 07:51:00,
2013-04-21 00:56:00,59.2,44.1,29.98,East,84,0.0,0.0,57,0.00,,,0.00,WUHU216WMR968SP,2013-04-21 07:56:00,
2013-04-21 01:01:00,58.8,43.7,29.98,East,84,0.0,0.0,57,0.00,,,0.00,WUHU216WMR968SP,2013-04-21 08:01:00,
2013-04-21 01:06:00,58.6,43.5,29.98,East,84,0.0,0.0,57,0.00,,,0.00,WUHU216WMR968SP,2013-04-21 08:06:00,
2013-04-21 01:11:00,58.6,43.5,29.98,East,84,0.0,0.0,57,0.00,,,0.00,WUHU216WMR968SP,2013-04-21 08:11:00,
2013-04-21 01:16:00,58.6,44.0,29.98,East,84,0.0,0.0,58,0.00,,,0.00,WUHU216WMR968SP,2013-04-21 08:16:00,
2013-04-21 01:21:00,58.6,44.0,29.98,East,84,0.0,0.0,58,0.00,,,0.00,WUHU216WMR968SP,2013-04-21 08:21:00,
2013-04-21 01:26:00,58.3,43.2,29.98,East,84,0.0,0.0,57,0.00,,,0.00,WUHU216WMR968SP,2013-04-21 08:26:00,
2013-04-21 01:31:00,58.1,42.6,29.98,East,84,0.0,0.0,56,0.00,,,0.00,WUHU216WMR968SP,2013-04-21 08:31:00,
2013-04-21 01:36:00,58.3,42.8,29.98,East,84,0.0,0.0,56,0.00,,,0.00,WUHU216WMR968SP,2013-04-21 08:36:00,
2013-04-21 01:41:00,58.5,42.9,29.98,East,84,0.0,0.0,56,0.00,,,0.00,WUHU216WMR968SP,2013-04-21 08:41:00,
2013-04-21 01:46:00,58.6,42.6,29.98,East,84,0.0,0.0,55,0.00,,,0.00,WUHU216WMR968SP,2013-04-21 08:46:00,
2013-04-21 01:51:00,58.8,42.7,29.98,East,84,0.0,0.0,55,0.00,,,0.00,WUHU216WMR968SP,2013-04-21 08:51:00,
2013-04-21 01:56:00,59.2,43.1,29.98,East,84,0.0,0.0,55,0.00,,,0.00,WUHU216WMR968SP,2013-04-21 08:56:00,
2013-04-21 02:01:00,59.4,43.3,29.98,East,84,0.0,0.0,55,0.00,,,0.00,WUHU216WMR968SP,2013-04-21 09:01:00,
2013-04-21 02:06:00,59.5,43.4,29.98,East,84,0.0,0.0,55,0.00,,,0.00,WUHU216WMR968SP,2013-04-21 09:06:00,
2013-04-21 02:11:00,59.9,43.8,29.98,East,84,0.0,0.0,55,0.00,,,0.00,WUHU216WMR968SP,2013-04-21 09:11:00,
2013-04-21 02:16:00,60.1,43.5,29.98,East,84,0.0,0.0,54,0.00,,,0.00,WUHU216WMR968SP,2013-04-21 09:16:00,
2013-04-21 02:21:00,59.9,43.3,29.98,East,84,0.0,0.0,54,0.00,,,0.00,WUHU216WMR968SP,2013-04-21 09:21:00,
2013-04-21 02:26:00,59.7,43.1,29.98,East,84,0.0,0.0,54,0.00,,,0.00,WUHU216WMR968SP,2013-04-21 09:26:00,
2013-04-21 02:31:00,59.7,43.6,29.98,East,84,0.0,0.0,55,0.00,,,0.00,WUHU216WMR968SP,2013-04-21 09:31:00,
2013-04-21 02:36:00,59.4,43.3,29.95,East,84,0.0,0.0,55,0.00,,,0.00,WUHU216WMR968SP,2013-04-21 09:36:00,
2013-04-21 02:41:00,59.2,42.6,29.95,East,84,0.0,0.0,54,0.00,,,0.00,WUHU216WMR968SP,2013-04-21 09:41:00,
2013-04-21 02:46:00,59.0,42.9,29.95,East,84,0.0,0.0,55,0.00,,,0.00,WUHU216WMR968SP,2013-04-21 09:46:00,
2013-04-21 02:51:00,59.0,42.9,29.95,East,83,0.0,0.0,55,0.00,,,0.00,WUHU216WMR968SP,2013-04-21 09:51:00,
2013-04-21 02:56:00,58.6,42.6,29.95,East,84,0.0,0.0,55,0.00,,,0.00,WUHU216WMR968SP,2013-04-21 09:56:00,
2013-04-21 03:01:00,58.5,42.5,29.95,East,84,0.0,0.0,55,0.00,,,0.00,WUHU216WMR968SP,2013-04-21 10:01:00,
2013-04-21 03:06:00,58.1,42.6,29.95,East,84,0.0,0.0,56,0.00,,,0.00,WUHU216WMR968SP,2013-04-21 10:06:00,
2013-04-21 03:11:00,57.9,42.4,29.95,East,84,0.0,0.0,56,0.00,,,0.00,WUHU216WMR968SP,2013-04-21 10:11:00,
2013-04-21 03:16:00,57.4,41.9,29.95,East,84,0.0,0.0,56,0.00,,,0.00,WUHU216WMR968SP,2013-04-21 10:16:00,
2013-04-21 03:21:00,57.2,41.7,29.95,East,84,0.0,0.0,56,0.00,,,0.00,WUHU216WMR968SP,2013-04-21 10:21:00,
2013-04-21 03:26:00,57.2,42.2,29.95,East,83,0.0,0.0,57,0.00,,,0.00,WUHU216WMR968SP,2013-04-21 10:26:00,
2013-04-21 03:31:00,57.6,42.6,29.95,East,84,0.0,0.0,57,0.00,,,0.00,WUHU216WMR968SP,2013-04-21 10:31:00,
2013-04-21 03:36:00,57.7,42.2,29.98,East,84,0.0,0.0,56,0.00,,,0.00,WUHU216WMR968SP,2013-04-21 10:36:00,
2013-04-21 03:41:00,57.9,42.4,29.98,East,84,0.0,0.0,56,0.00,,,0.00,WUHU216WMR968SP,2013-04-21 10:41:00,
2013-04-21 03:46:00,57.9,42.4,29.98,East,84,0.0,0.0,56,0.00,,,0.00,WUHU216WMR968SP,2013-04-21 10:46:00,
2013-04-21 03:51:00,57.9,42.4,29.95,East,84,0.0,0.0,56,0.00,,,0.00,WUHU216WMR968SP,2013-04-21 10:51:00,
2013-04-21 03:56:00,57.9,42.4,29.95,East,84,0.0,0.0,56,0.00,,,0.00,WUHU216WMR968SP,2013-04-21 10:56:00,
2013-04-21 04:01:00,57.7,42.7,29.95,East,84,0.0,0.0,57,0.00,,,0.00,WUHU216WMR968SP,2013-04-21 11:01:00,
2013-04-21 04:06:00,57.7,42.7,29.95,East,84,0.0,0.0,57,0.00,,,0.00,WUHU216WMR968SP,2013-04-21 11:06:00,
2013-04-21 04:11:00,57.9,42.9,29.95,East,84,0.0,0.0,57,0.00,,,0.00,WUHU216WMR968SP,2013-04-21 11:11:00,
2013-04-21 04:16:00,57.9,42.9,29.95,East,84,0.0,0.0,57,0.00,,,0.00,WUHU216WMR968SP,2013-04-21 11:16:00,
2013-04-21 04:21:00,57.9,42.9,29.95,East,84,0.0,0.0,57,0.00,,,0.00,WUHU216WMR968SP,2013-04-21 11:21:00,
2013-04-21 04:26:00,57.9,42.9,29.95,East,84,0.0,0.0,57,0.00,,,0.00,WUHU216WMR968SP,2013-04-21 11:26:00,
2013-04-21 04:31:00,57.7,42.2,29.95,East,84,0.0,0.0,56,0.00,,,0.00,WUHU216WMR968SP,2013-04-21 11:31:00,
2013-04-21 04:36:00,57.6,42.6,29.98,East,84,0.0,0.0,57,0.00,,,0.00,WUHU216WMR968SP,2013-04-21 11:36:00,
2013-04-21 04:41:00,57.2,41.7,29.98,East,84,0.0,0.0,56,0.00,,,0.00,WUHU216WMR968SP,2013-04-21 11:41:00,
2013-04-21 04:46:00,56.8,41.8,29.98,East,84,0.0,0.0,57,0.00,,,0.00,WUHU216WMR968SP,2013-04-21 11:46:00,
2013-04-21 04:51:00,56.8,41.8,29.98,East,84,0.0,0.0,57,0.00,,,0.00,WUHU216WMR968SP,2013-04-21 11:51:00,
2013-04-21 04:56:00,56.8,41.8,29.98,East,84,0.0,0.0,57,0.00,,,0.00,WUHU216WMR968SP,2013-04-21 11:56:00,
2013-04-21 05:01:00,56.7,41.7,29.98,East,84,0.0,0.0,57,0.00,,,0.00,WUHU216WMR968SP,2013-04-21 12:01:00,
2013-04-21 05:06:00,56.7,41.7,29.95,East,84,0.0,0.0,57,0.00,,,0.00,WUHU216WMR968SP,2013-04-21 12:06:00,
2013-04-21 05:11:00,56.5,41.5,29.95,East,84,0.0,0.0,57,0.00,,,0.00,WUHU216WMR968SP,2013-04-21 12:11:00,
2013-04-21 05:16:00,56.5,42.0,29.95,East,84,0.0,0.0,58,0.00,,,0.00,WUHU216WMR968SP,2013-04-21 12:16:00,
2013-04-21 05:21:00,56.3,41.8,29.98,East,84,0.0,0.0,58,0.00,,,0.00,WUHU216WMR968SP,2013-04-21 12:21:00,
2013-04-21 05:26:00,56.1,41.6,29.98,East,84,0.0,0.0,58,0.00,,,0.00,WUHU216WMR968SP,2013-04-21 12:26:00,
2013-04-21 05:31:00,56.1,42.1,29.98,East,83,0.0,0.0,59,0.00,,,0.00,WUHU216WMR968SP,2013-04-21 12:31:00,
2013-04-21 05:36:00,55.9,41.9,29.95,East,84,0.0,0.0,59,0.00,,,0.00,WUHU216WMR968SP,2013-04-21 12:36:00,
2013-04-21 05:41:00,55.9,42.8,29.95,East,84,0.0,0.0,61,0.00,,,0.00,WUHU216WMR968SP,2013-04-21 12:41:00,
2013-04-21 05:46:00,55.9,43.6,29.95,East,84,0.0,0.0,63,0.00,,,0.00,WUHU216WMR968SP,2013-04-21 12:46:00,
2013-04-21 05:51:00,56.1,44.2,29.98,East,84,0.0,0.0,64,0.00,,,0.00,WUHU216WMR968SP,2013-04-21 12:51:00,
2013-04-21 05:56:00,56.3,44.8,29.98,East,84,0.0,0.0,65,0.00,,,0.00,WUHU216WMR968SP,2013-04-21 12:56:00,
2013-04-21 06:01:00,56.3,44.8,29.98,East,84,0.0,0.0,65,0.00,,,0.00,WUHU216WMR968SP,2013-04-21 13:01:00,
2013-04-21 06:06:00,55.9,43.6,29.98,East,84,0.0,0.0,63,0.00,,,0.00,WUHU216WMR968SP,2013-04-21 13:06:00,
2013-04-21 06:11:00,56.1,43.8,29.98,East,84,0.0,0.0,63,0.00,,,0.00,WUHU216WMR968SP,2013-04-21 13:11:00,
2013-04-21 06:16:00,55.9,43.2,29.98,East,84,0.0,0.0,62,0.00,,,0.00,WUHU216WMR968SP,2013-04-21 13:16:00,
2013-04-21 06:21:00,55.9,43.2,29.98,East,84,0.0,0.0,62,0.00,,,0.00,WUHU216WMR968SP,2013-04-21 13:21:00,
2013-04-21 06:26:00,55.9,43.2,29.98,East,83,0.0,0.0,62,0.00,,,0.00,WUHU216WMR968SP,2013-04-21 13:26:00,
2013-04-21 06:31:00,55.8,43.1,29.98,East,84,0.0,0.0,62,0.00,,,0.00,WUHU216WMR968SP,2013-04-21 13:31:00,
2013-04-21 06:36:00,55.9,43.6,29.98,East,84,0.0,0.0,63,0.00,,,0.00,WUHU216WMR968SP,2013-04-21 13:36:00,
2013-04-21 06:41:00,55.9,44.0,29.98,East,84,0.0,0.0,64,0.00,,,0.00,WUHU216WMR968SP,2013-04-21 13:41:00,
2013-04-21 06:46:00,56.1,43.8,29.98,East,84,0.0,0.0,63,0.00,,,0.00,WUHU216WMR968SP,2013-04-21 13:46:00,
2013-04-21 06:51:00,56.1,44.2,29.98,East,83,0.0,0.0,64,0.00,,,0.00,WUHU216WMR968SP,2013-04-21 13:51:00,
2013-04-21 06:56:00,56.3,44.8,29.98,East,83,0.0,0.0,65,0.00,,,0.00,WUHU216WMR968SP,2013-04-21 13:56:00,
2013-04-21 07:01:00,56.3,44.8,29.98,East,84,0.0,0.0,65,0.00,,,0.00,WUHU216WMR968SP,2013-04-21 14:01:00,
2013-04-21 07:06:00,56.7,45.2,29.98,East,84,0.0,0.0,65,0.00,,,0.00,WUHU216WMR968SP,2013-04-21 14:06:00,
2013-04-21 07:11:00,57.0,45.5,29.98,East,83,0.0,0.0,65,0.00,,,0.00,WUHU216WMR968SP,2013-04-21 14:11:00,
2013-04-21 07:16:00,57.7,46.2,29.98,East,84,0.0,0.0,65,0.00,,,0.00,WUHU216WMR968SP,2013-04-21 14:16:00,
2013-04-21 07:21:00,58.6,47.0,29.98,East,84,0.0,0.0,65,0.00,,,0.00,WUHU216WMR968SP,2013-04-21 14:21:00,
2013-04-21 07:26:00,59.4,47.4,29.98,East,83,0.0,0.0,64,0.00,,,0.00,WUHU216WMR968SP,2013-04-21 14:26:00,
2013-04-21 07:31:00,60.3,46.9,29.98,East,83,0.0,0.0,61,0.00,,,0.00,WUHU216WMR968SP,2013-04-21 14:31:00,
2013-04-21 07:36:00,61.2,46.9,29.98,East,83,0.0,0.0,59,0.00,,,0.00,WUHU216WMR968SP,2013-04-21 14:36:00,
2013-04-21 07:41:00,62.6,47.3,29.98,East,84,0.0,0.0,57,0.00,,,0.00,WUHU216WMR968SP,2013-04-21 14:41:00,
2013-04-21 07:46:00,63.7,47.8,29.98,East,84,0.0,0.0,56,0.00,,,0.00,WUHU216WMR968SP,2013-04-21 14:46:00,
2013-04-21 07:51:00,64.6,48.2,29.98,East,84,0.0,0.0,55,0.00,,,0.00,WUHU216WMR968SP,2013-04-21 14:51:00,
2013-04-21 07:56:00,65.5,48.5,29.98,East,84,0.0,0.0,54,0.00,,,0.00,WUHU216WMR968SP,2013-04-21 14:56:00,
2013-04-21 08:01:00,66.4,48.8,29.98,East,84,0.0,0.0,53,0.00,,,0.00,WUHU216WMR968SP,2013-04-21 15:01:00,
2013-04-21 08:06:00,67.3,49.7,29.98,SSE,162,0.0,0.0,53,0.00,,,0.00,WUHU216WMR968SP,2013-04-21 15:06:00,
2013-04-21 08:11:00,68.0,50.3,29.98,SSE,165,0.0,0.0,53,0.00,,,0.00,WUHU216WMR968SP,2013-04-21 15:11:00,
2013-04-21 08:16:00,68.5,50.3,29.98,South,171,0.0,0.0,52,0.00,,,0.00,WUHU216WMR968SP,2013-04-21 15:16:00,
2013-04-21 08:21:00,68.9,50.6,29.98,South,180,0.0,0.0,52,0.00,,,0.00,WUHU216WMR968SP,2013-04-21 15:21:00,
2013-04-21 08:26:00,68.9,50.6,29.98,SSW,193,2.7,3.1,52,0.00,,,0.00,WUHU216WMR968SP,2013-04-21 15:26:00,
2013-04-21 08:31:00,68.7,50.4,29.98,SE,127,0.0,3.1,52,0.00,,,0.00,WUHU216WMR968SP,2013-04-21 15:31:00,
2013-04-21 08:36:00,68.5,50.3,29.98,SSE,165,0.0,2.2,52,0.00,,,0.00,WUHU216WMR968SP,2013-04-21 15:36:00,
2013-04-21 08:41:00,68.4,50.2,29.98,SSW,211,2.2,3.1,52,0.00,,,0.00,WUHU216WMR968SP,2013-04-21 15:41:00,
2013-04-21 08:46:00,67.8,50.1,29.98,SW,227,2.2,3.6,53,0.00,,,0.00,WUHU216WMR968SP,2013-04-21 15:46:00,
2013-04-21 08:51:00,67.6,49.9,29.98,South,172,0.0,3.6,53,0.00,,,0.00,WUHU216WMR968SP,2013-04-21 15:51:00,
2013-04-21 08:56:00,67.5,49.9,29.98,SSW,200,0.0,3.1,53,0.00,,,0.00,WUHU216WMR968SP,2013-04-21 15:56:00,
2013-04-21 09:01:00,67.3,49.7,29.98,SW,215,0.0,3.6,53,0.00,,,0.00,WUHU216WMR968SP,2013-04-21 16:01:00,
2013-04-21 09:06:00,67.3,49.7,29.98,SSW,203,0.0,3.6,53,0.00,,,0.00,WUHU216WMR968SP,2013-04-21 16:06:00,
2013-04-21 09:11:00,67.5,49.9,29.98,South,172,2.2,3.6,53,0.00,,,0.00,WUHU216WMR968SP,2013-04-21 16:11:00,
2013-04-21 09:16:00,67.6,49.9,29.98,SSW,193,0.0,3.6,53,0.00,,,0.00,WUHU216WMR968SP,2013-04-21 16:16:00,
2013-04-21 09:21:00,68.0,49.8,29.98,ESE,105,0.0,3.6,52,0.00,,,0.00,WUHU216WMR968SP,2013-04-21 16:21:00,
2013-04-21 09:26:00,68.5,50.3,29.98,SW,231,0.0,3.1,52,0.00,,,0.00,WUHU216WMR968SP,2013-04-21 16:26:00,
2013-04-21 09:31:00,68.7,50.4,29.98,SW,233,0.0,4.5,52,0.00,,,0.00,WUHU216WMR968SP,2013-04-21 16:31:00,
2013-04-21 09:36:00,69.1,50.8,29.98,SSW,200,2.2,4.5,52,0.00,,,0.00,WUHU216WMR968SP,2013-04-21 16:36:00,
2013-04-21 09:41:00,69.4,51.1,29.98,SSW,205,0.0,4.0,52,0.00,,,0.00,WUHU216WMR968SP,2013-04-21 16:41:00,
2013-04-21 09:46:00,69.8,51.5,29.98,SW,225,3.6,4.5,52,0.00,,,0.00,WUHU216WMR968SP,2013-04-21 16:46:00,
2013-04-21 09:51:00,70.3,51.9,29.98,SSW,201,3.1,4.5,52,0.00,,,0.00,WUHU216WMR968SP,2013-04-21 16:51:00,
2013-04-21 09:56:00,70.7,52.3,29.98,SW,214,3.6,4.0,52,0.00,,,0.00,WUHU216WMR968SP,2013-04-21 16:56:00,
2013-04-21 10:01:00,70.9,50.8,29.98,WSW,254,0.0,5.4,49,0.00,,,0.00,WUHU216WMR968SP,2013-04-21 17:01:00,
2013-04-21 10:06:00,71.1,51.0,29.98,SSW,197,2.7,5.4,49,0.00,,,0.00,WUHU216WMR968SP,2013-04-21 17:06:00,
2013-04-21 10:11:00,71.4,51.3,29.98,South,171,0.0,5.4,49,0.00,,,0.00,WUHU216WMR968SP,2013-04-21 17:11:00,
2013-04-21 10:16:00,72.1,51.9,29.98,SSW,208,0.0,4.0,49,0.00,,,0.00,WUHU216WMR968SP,2013-04-21 17:16:00,
2013-04-21 10:21:00,72.5,52.3,29.98,West,263,3.6,5.8,49,0.00,,,0.00,WUHU216WMR968SP,2013-04-21 17:21:00,
2013-04-21 10:26:00,72.9,52.7,29.98,SW,221,0.0,5.8,49,0.00,,,0.00,WUHU216WMR968SP,2013-04-21 17:26:00,
2013-04-21 10:31:00,73.2,52.9,29.98,SSW,206,4.0,5.8,49,0.00,,,0.00,WUHU216WMR968SP,2013-04-21 17:31:00,
2013-04-21 10:36:00,73.6,54.4,29.98,SSW,205,4.0,7.6,51,0.00,,,0.00,WUHU216WMR968SP,2013-04-21 17:36:00,
2013-04-21 10:41:00,73.8,52.9,29.98,South,176,2.7,7.6,48,0.00,,,0.00,WUHU216WMR968SP,2013-04-21 17:41:00,
2013-04-21 10:46:00,73.8,52.9,29.98,WSW,239,2.7,6.3,48,0.00,,,0.00,WUHU216WMR968SP,2013-04-21 17:46:00,
2013-04-21 10:51:00,73.4,52.6,29.98,SW,226,4.0,6.3,48,0.00,,,0.00,WUHU216WMR968SP,2013-04-21 17:51:00,
2013-04-21 10:56:00,73.8,52.9,29.98,SW,219,5.4,6.3,48,0.00,,,0.00,WUHU216WMR968SP,2013-04-21 17:56:00,
2013-04-21 11:01:00,74.1,53.2,29.98,WSW,239,2.2,6.3,48,0.00,,,0.00,WUHU216WMR968SP,2013-04-21 18:01:00,
2013-04-21 11:06:00,74.3,53.4,29.98,SW,226,4.5,6.7,48,0.00,,,0.00,WUHU216WMR968SP,2013-04-21 18:06:00,
2013-04-21 11:11:00,74.3,53.4,29.98,SW,228,3.6,6.7,48,0.00,,,0.00,WUHU216WMR968SP,2013-04-21 18:11:00,
2013-04-21 11:16:00,74.7,53.8,29.98,WSW,247,3.1,6.3,48,0.00,,,0.00,WUHU216WMR968SP,2013-04-21 18:16:00,
2013-04-21 11:21:00,74.5,53.6,29.98,SSW,213,2.2,5.8,48,0.00,,,0.00,WUHU216WMR968SP,2013-04-21 18:21:00,
2013-04-21 11:26:00,74.8,52.6,29.98,WNW,293,2.2,7.6,46,0.00,,,0.00,WUHU216WMR968SP,2013-04-21 18:26:00,
2013-04-21 11:31:00,74.8,52.6,29.98,WSW,238,3.1,7.6,46,0.00,,,0.00,WUHU216WMR968SP,2013-04-21 18:31:00,
2013-04-21 11:36:00,75.0,52.8,29.98,SW,227,4.0,7.6,46,0.00,,,0.00,WUHU216WMR968SP,2013-04-21 18:36:00,
2013-04-21 11:41:00,75.7,52.8,29.98,SW,221,2.2,7.6,45,0.00,,,0.00,WUHU216WMR968SP,2013-04-21 18:41:00,
2013-04-21 11:46:00,75.7,52.8,29.98,SSW,208,4.0,7.6,45,0.00,,,0.00,WUHU216WMR968SP,2013-04-21 18:46:00,
2013-04-21 11:51:00,75.9,53.0,29.98,SW,218,4.5,7.6,45,0.00,,,0.00,WUHU216WMR968SP,2013-04-21 18:51:00,
2013-04-21 11:56:00,76.5,53.6,29.98,SW,215,2.2,6.7,45,0.00,,,0.00,WUHU216WMR968SP,2013-04-21 18:56:00,
2013-04-21 12:01:00,77.0,54.0,29.98,South,191,2.7,7.6,45,0.00,,,0.00,WUHU216WMR968SP,2013-04-21 19:01:00,
2013-04-21 12:06:00,77.4,54.4,29.95,SW,217,4.0,7.6,45,0.00,,,0.00,WUHU216WMR968SP,2013-04-21 19:06:00,
2013-04-21 12:11:00,77.7,54.7,29.95,SW,223,4.0,7.2,45,0.00,,,0.00,WUHU216WMR968SP,2013-04-21 19:11:00,
2013-04-21 12:16:00,78.1,55.0,29.95,SW,236,2.2,7.2,45,0.00,,,0.00,WUHU216WMR968SP,2013-04-21 19:16:00,
2013-04-21 12:21:00,78.3,55.2,29.95,WSW,249,3.1,7.2,45,0.00,,,0.00,WUHU216WMR968SP,2013-04-21 19:21:00,
2013-04-21 12:26:00,78.4,55.3,29.95,SW,226,5.4,7.6,45,0.00,,,0.00,WUHU216WMR968SP,2013-04-21 19:26:00,
2013-04-21 12:31:00,77.9,54.9,29.95,WNW,300,4.5,7.6,45,0.00,,,0.00,WUHU216WMR968SP,2013-04-21 19:31:00,
2013-04-21 12:36:00,77.2,54.2,29.95,SSW,203,3.1,7.6,45,0.00,,,0.00,WUHU216WMR968SP,2013-04-21 19:36:00,
2013-04-21 12:41:00,77.7,54.7,29.95,SW,224,3.6,6.7,45,0.00,,,0.00,WUHU216WMR968SP,2013-04-21 19:41:00,
2013-04-21 12:46:00,77.9,54.9,29.95,South,185,6.3,8.3,45,0.00,,,0.00,WUHU216WMR968SP,2013-04-21 19:46:00,
2013-04-21 12:51:00,78.3,55.2,29.95,SW,227,3.6,8.3,45,0.00,,,0.00,WUHU216WMR968SP,2013-04-21 19:51:00,
2013-04-21 12:56:00,77.9,54.9,29.95,SSW,202,4.0,7.6,45,0.00,,,0.00,WUHU216WMR968SP,2013-04-21 19:56:00,
2013-04-21 13:01:00,77.7,54.7,29.95,WSW,254,4.0,6.3,45,0.00,,,0.00,WUHU216WMR968SP,2013-04-21 20:01:00,
2013-04-21 13:06:00,77.0,54.0,29.95,SSW,192,4.9,7.6,45,0.00,,,0.00,WUHU216WMR968SP,2013-04-21 20:06:00,
2013-04-21 13:11:00,77.2,54.2,29.95,SSW,198,4.0,7.6,45,0.00,,,0.00,WUHU216WMR968SP,2013-04-21 20:11:00,
2013-04-21 13:16:00,77.9,54.9,29.95,South,169,4.0,8.1,45,0.00,,,0.00,WUHU216WMR968SP,2013-04-21 20:16:00,
2013-04-21 13:21:00,78.6,55.5,29.95,WSW,241,4.9,8.1,45,0.00,,,0.00,WUHU216WMR968SP,2013-04-21 20:21:00,
2013-04-21 13:26:00,79.3,56.1,29.95,WSW,245,4.9,7.6,45,0.00,,,0.00,WUHU216WMR968SP,2013-04-21 20:26:00,
2013-04-21 13:32:00,79.2,54.1,29.95,SW,225,4.9,7.6,42,0.00,,,0.00,WUHU216WMR968SP,2013-04-21 20:32:00,
2013-04-21 13:37:00,78.6,54.2,29.95,WSW,239,3.1,7.2,43,0.00,,,0.00,WUHU216WMR968SP,2013-04-21 20:37:00,
2013-04-21 13:42:00,78.6,54.2,29.95,WSW,249,2.7,5.8,43,0.00,,,0.00,WUHU216WMR968SP,2013-04-21 20:42:00,
2013-04-21 13:47:00,78.3,53.9,29.95,SW,227,2.7,6.3,43,0.00,,,0.00,WUHU216WMR968SP,2013-04-21 20:47:00,
2013-04-21 13:52:00,78.4,54.0,29.95,ESE,121,3.6,6.3,43,0.00,,,0.00,WUHU216WMR968SP,2013-04-21 20:52:00,
2013-04-21 13:57:00,79.0,53.9,29.95,SW,233,5.4,6.3,42,0.00,,,0.00,WUHU216WMR968SP,2013-04-21 20:57:00,
2013-04-21 14:02:00,79.7,54.5,29.95,SW,234,4.9,6.3,42,0.00,,,0.00,WUHU216WMR968SP,2013-04-21 21:02:00,
2013-04-21 14:07:00,80.2,55.0,29.95,SW,229,4.5,8.1,42,0.00,,,0.00,WUHU216WMR968SP,2013-04-21 21:07:00,
2013-04-21 14:12:00,79.9,54.7,29.95,WNW,290,4.5,8.1,42,0.00,,,0.00,WUHU216WMR968SP,2013-04-21 21:12:00,
2013-04-21 14:17:00,79.3,54.2,29.95,West,266,3.6,8.1,42,0.00,,,0.00,WUHU216WMR968SP,2013-04-21 21:17:00,
2013-04-21 14:22:00,78.6,54.2,29.95,WSW,238,3.6,8.1,43,0.00,,,0.00,WUHU216WMR968SP,2013-04-21 21:22:00,
2013-04-21 14:27:00,78.8,53.7,29.95,West,273,2.2,8.1,42,0.00,,,0.00,WUHU216WMR968SP,2013-04-21 21:27:00,
2013-04-21 14:32:00,79.0,53.9,29.95,WSW,238,4.0,6.3,42,0.00,,,0.00,WUHU216WMR968SP,2013-04-21 21:32:00,
2013-04-21 14:37:00,79.3,54.2,29.95,WSW,241,3.6,6.3,42,0.00,,,0.00,WUHU216WMR968SP,2013-04-21 21:37:00,
2013-04-21 14:42:00,79.9,54.7,29.95,WSW,238,2.7,8.3,42,0.00,,,0.00,WUHU216WMR968SP,2013-04-21 21:42:00,
2013-04-21 14:47:00,80.4,55.2,29.95,South,183,4.0,8.3,42,0.00,,,0.00,WUHU216WMR968SP,2013-04-21 21:47:00,
2013-04-21 14:52:00,80.6,55.4,29.92,WSW,256,5.4,8.3,42,0.00,,,0.00,WUHU216WMR968SP,2013-04-21 21:52:00,
2013-04-21 14:57:00,81.1,55.8,29.92,SSW,210,4.9,8.3,42,0.00,,,0.00,WUHU216WMR968SP,2013-04-21 21:57:00,
2013-04-21 15:02:00,81.1,55.8,29.92,WSW,243,3.1,7.6,42,0.00,,,0.00,WUHU216WMR968SP,2013-04-21 22:02:00,
2013-04-21 15:07:00,80.6,55.4,29.95,SW,232,5.8,7.6,42,0.00,,,0.00,WUHU216WMR968SP,2013-04-21 22:07:00,
2013-04-21 15:12:00,80.8,55.5,29.95,WSW,248,4.0,7.6,42,0.00,,,0.00,WUHU216WMR968SP,2013-04-21 22:12:00,
2013-04-21 15:17:00,80.6,55.4,29.95,WSW,237,4.9,8.1,42,0.00,,,0.00,WUHU216WMR968SP,2013-04-21 22:17:00,
2013-04-21 15:22:00,80.1,54.9,29.95,WSW,252,4.5,8.1,42,0.00,,,0.00,WUHU216WMR968SP,2013-04-21 22:22:00,
2013-04-21 15:27:00,80.1,54.9,29.95,SW,224,4.9,8.1,42,0.00,,,0.00,WUHU216WMR968SP,2013-04-21 22:27:00,
2013-04-21 15:32:00,80.2,55.0,29.95,SW,230,6.7,7.6,42,0.00,,,0.00,WUHU216WMR968SP,2013-04-21 22:32:00,
2013-04-21 15:37:00,80.4,55.2,29.95,WSW,258,5.4,7.6,42,0.00,,,0.00,WUHU216WMR968SP,2013-04-21 22:37:00,
2013-04-21 15:42:00,80.4,55.2,29.95,SSE,166,4.5,7.6,42,0.00,,,0.00,WUHU216WMR968SP,2013-04-21 22:42:00,
2013-04-21 15:47:00,80.6,55.4,29.95,SSW,211,4.0,8.3,42,0.00,,,0.00,WUHU216WMR968SP,2013-04-21 22:47:00,
2013-04-21 15:52:00,80.4,55.2,29.95,SSW,204,0.0,8.3,42,0.00,,,0.00,WUHU216WMR968SP,2013-04-21 22:52:00,
2013-04-21 15:57:00,80.4,55.2,29.95,WSW,241,5.8,8.7,42,0.00,,,0.00,WUHU216WMR968SP,2013-04-21 22:57:00,
2013-04-21 16:02:00,80.2,55.0,29.95,SW,217,3.1,8.7,42,0.00,,,0.00,WUHU216WMR968SP,2013-04-21 23:02:00,
2013-04-21 16:07:00,80.4,55.2,29.95,SSW,212,4.5,7.6,42,0.00,,,0.00,WUHU216WMR968SP,2013-04-21 23:07:00,
2013-04-21 16:12:00,80.6,55.4,29.95,South,184,2.7,7.2,42,0.00,,,0.00,WUHU216WMR968SP,2013-04-21 23:12:00,
2013-04-21 16:17:00,80.8,55.5,29.95,SW,221,4.9,7.6,42,0.00,,,0.00,WUHU216WMR968SP,2013-04-21 23:17:00,
2013-04-21 16:22:00,80.6,55.4,29.95,SSW,202,4.0,7.6,42,0.00,,,0.00,WUHU216WMR968SP,2013-04-21 23:22:00,
2013-04-21 16:27:00,80.4,55.2,29.95,WSW,257,5.4,8.3,42,0.00,,,0.00,WUHU216WMR968SP,2013-04-21 23:27:00,
2013-04-21 16:32:00,79.7,54.5,29.95,SW,217,6.3,8.3,42,0.00,,,0.00,WUHU216WMR968SP,2013-04-21 23:32:00,
2013-04-21 16:37:00,79.2,54.1,29.95,SW,232,4.0,7.6,42,0.00,,,0.00,WUHU216WMR968SP,2013-04-21 23:37:00,
2013-04-21 16:42:00,78.8,53.7,29.95,WSW,239,5.8,8.7,42,0.00,,,0.00,WUHU216WMR968SP,2013-04-21 23:42:00,
2013-04-21 16:47:00,77.9,53.6,29.95,NW,306,5.8,8.7,43,0.00,,,0.00,WUHU216WMR968SP,2013-04-21 23:47:00,
2013-04-21 16:52:00,77.5,53.2,29.95,SSE,168,4.0,7.2,43,0.00,,,0.00,WUHU216WMR968SP,2013-04-21 23:52:00,
2013-04-21 16:57:00,77.4,53.1,29.95,SW,234,3.1,7.2,43,0.00,,,0.00,WUHU216WMR968SP,2013-04-21 23:57:00,
2013-04-21 17:02:00,77.4,53.1,29.95,South,190,4.9,6.7,43,0.00,,,0.00,WUHU216WMR968SP,2013-04-22 00:02:00,
2013-04-21 17:07:00,77.4,53.1,29.95,SSW,199,4.5,6.3,43,0.00,,,0.00,WUHU216WMR968SP,2013-04-22 00:07:00,
2013-04-21 17:12:00,77.4,53.1,29.95,SSW,211,4.5,8.3,43,0.00,,,0.00,WUHU216WMR968SP,2013-04-22 00:12:00,
2013-04-21 17:17:00,77.2,52.9,29.95,SW,224,4.0,8.3,43,0.00,,,0.00,WUHU216WMR968SP,2013-04-22 00:17:00,
2013-04-21 17:22:00,77.0,52.8,29.95,SSW,213,3.6,7.6,43,0.00,,,0.00,WUHU216WMR968SP,2013-04-22 00:22:00,
2013-04-21 17:27:00,76.8,52.6,29.95,SW,219,4.0,7.2,43,0.00,,,0.00,WUHU216WMR968SP,2013-04-22 00:27:00,
2013-04-21 17:32:00,76.5,52.3,29.95,West,275,4.9,7.6,43,0.00,,,0.00,WUHU216WMR968SP,2013-04-22 00:32:00,
2013-04-21 17:37:00,76.1,51.9,29.95,SSW,210,3.6,7.6,43,0.00,,,0.00,WUHU216WMR968SP,2013-04-22 00:37:00,
2013-04-21 17:42:00,75.9,51.8,29.95,SW,226,3.6,7.2,43,0.00,,,0.00,WUHU216WMR968SP,2013-04-22 00:42:00,
2013-04-21 17:47:00,75.4,51.3,29.95,WSW,254,4.5,6.7,43,0.00,,,0.00,WUHU216WMR968SP,2013-04-22 00:47:00,
2013-04-21 17:52:00,74.8,50.8,29.95,South,191,4.9,8.3,43,0.00,,,0.00,WUHU216WMR968SP,2013-04-22 00:52:00,
2013-04-21 17:57:00,74.7,50.7,29.95,SW,223,4.9,8.3,43,0.00,,,0.00,WUHU216WMR968SP,2013-04-22 00:57:00,
2013-04-21 18:02:00,74.1,50.1,29.95,SSE,156,4.5,8.3,43,0.00,,,0.00,WUHU216WMR968SP,2013-04-22 01:02:00,
2013-04-21 18:07:00,73.8,49.9,29.92,SW,230,5.8,8.3,43,0.00,,,0.00,WUHU216WMR968SP,2013-04-22 01:07:00,
2013-04-21 18:12:00,73.0,49.8,29.92,WSW,243,4.5,7.6,44,0.00,,,0.00,WUHU216WMR968SP,2013-04-22 01:12:00,
2013-04-21 18:17:00,72.5,49.3,29.92,SSW,205,5.8,7.6,44,0.00,,,0.00,WUHU216WMR968SP,2013-04-22 01:17:00,
2013-04-21 18:22:00,72.3,49.1,29.92,WSW,238,4.9,6.3,44,0.00,,,0.00,WUHU216WMR968SP,2013-04-22 01:22:00,
2013-04-21 18:27:00,71.6,48.5,29.92,SSW,210,4.5,6.3,44,0.00,,,0.00,WUHU216WMR968SP,2013-04-22 01:27:00,
2013-04-21 18:32:00,71.2,48.1,29.92,WSW,237,3.6,6.3,44,0.00,,,0.00,WUHU216WMR968SP,2013-04-22 01:32:00,
2013-04-21 18:37:00,70.9,47.8,29.95,WSW,240,4.5,8.3,44,0.00,,,0.00,WUHU216WMR968SP,2013-04-22 01:37:00,
2013-04-21 18:42:00,70.7,47.7,29.95,SW,223,4.9,8.3,44,0.00,,,0.00,WUHU216WMR968SP,2013-04-22 01:42:00,
2013-04-21 18:47:00,70.7,47.7,29.95,South,183,2.7,6.3,44,0.00,,,0.00,WUHU216WMR968SP,2013-04-22 01:47:00,
2013-04-21 18:52:00,70.7,47.7,29.95,SW,233,4.0,7.6,44,0.00,,,0.00,WUHU216WMR968SP,2013-04-22 01:52:00,
2013-04-21 18:57:00,70.0,47.0,29.95,SW,220,3.6,7.6,44,0.00,,,0.00,WUHU216WMR968SP,2013-04-22 01:57:00,
2013-04-21 19:02:00,69.6,48.5,29.95,SW,222,3.1,6.3,47,0.00,,,0.00,WUHU216WMR968SP,2013-04-22 02:02:00,
2013-04-21 19:07:00,69.1,48.0,29.95,SSW,197,2.2,6.3,47,0.00,,,0.00,WUHU216WMR968SP,2013-04-22 02:07:00,
2013-04-21 19:12:00,68.5,47.5,29.95,SSW,209,4.9,6.3,47,0.00,,,0.00,WUHU216WMR968SP,2013-04-22 02:12:00,
2013-04-21 19:17:00,68.0,47.0,29.95,South,190,3.6,6.3,47,0.00,,,0.00,WUHU216WMR968SP,2013-04-22 02:17:00,
2013-04-21 19:22:00,67.6,46.6,29.95,South,178,3.1,6.3,47,0.00,,,0.00,WUHU216WMR968SP,2013-04-22 02:22:00,
2013-04-21 19:27:00,67.3,46.4,29.95,SW,216,4.0,6.3,47,0.00,,,0.00,WUHU216WMR968SP,2013-04-22 02:27:00,
2013-04-21 19:32:00,66.9,46.0,29.95,SW,231,4.5,6.3,47,0.00,,,0.00,WUHU216WMR968SP,2013-04-22 02:32:00,
2013-04-21 19:37:00,66.6,45.7,29.95,SW,227,2.7,5.8,47,0.00,,,0.00,WUHU216WMR968SP,2013-04-22 02:37:00,
2013-04-21 19:42:00,66.4,47.2,29.95,South,189,3.1,5.8,50,0.00,,,0.00,WUHU216WMR968SP,2013-04-22 02:42:00,
2013-04-21 19:47:00,65.8,46.7,29.95,West,266,3.1,6.3,50,0.00,,,0.00,WUHU216WMR968SP,2013-04-22 02:47:00,
2013-04-21 19:52:00,65.8,46.7,29.98,SW,224,4.5,6.3,50,0.00,,,0.00,WUHU216WMR968SP,2013-04-22 02:52:00,
2013-04-21 19:57:00,65.5,46.4,29.98,WSW,248,3.1,5.8,50,0.00,,,0.00,WUHU216WMR968SP,2013-04-22 02:57:00,
2013-04-21 20:02:00,65.5,48.0,29.98,SW,224,0.0,4.9,53,0.00,,,0.00,WUHU216WMR968SP,2013-04-22 03:02:00,
2013-04-21 20:07:00,65.1,47.6,29.98,WSW,240,3.6,5.8,53,0.00,,,0.00,WUHU216WMR968SP,2013-04-22 03:07:00,
2013-04-21 20:12:00,64.8,47.3,29.98,SW,236,3.6,5.8,53,0.00,,,0.00,WUHU216WMR968SP,2013-04-22 03:12:00,
2013-04-21 20:17:00,64.4,47.0,29.98,SW,218,3.1,5.8,53,0.00,,,0.00,WUHU216WMR968SP,2013-04-22 03:17:00,
2013-04-21 20:22:00,63.9,47.0,30.01,WNW,303,2.2,5.8,54,0.00,,,0.00,WUHU216WMR968SP,2013-04-22 03:22:00,
2013-04-21 20:27:00,63.3,47.0,30.01,WSW,237,0.0,5.4,55,0.00,,,0.00,WUHU216WMR968SP,2013-04-22 03:27:00,
2013-04-21 20:32:00,62.6,47.3,30.01,WNW,289,2.2,5.4,57,0.00,,,0.00,WUHU216WMR968SP,2013-04-22 03:32:00,
2013-04-21 20:37:00,61.9,47.5,30.01,NW,311,0.0,4.5,59,0.00,,,0.00,WUHU216WMR968SP,2013-04-22 03:37:00,
2013-04-21 20:42:00,61.5,48.1,30.01,WNW,298,2.2,3.6,61,0.00,,,0.00,WUHU216WMR968SP,2013-04-22 03:42:00,
2013-04-21 20:47:00,61.3,48.3,30.01,WNW,302,0.0,3.6,62,0.00,,,0.00,WUHU216WMR968SP,2013-04-22 03:47:00,
2013-04-21 20:52:00,61.0,48.9,30.04,NW,305,0.0,3.6,64,0.00,,,0.00,WUHU216WMR968SP,2013-04-22 03:52:00,
2013-04-21 20:57:00,60.8,48.7,30.04,West,262,0.0,3.6,64,0.00,,,0.00,WUHU216WMR968SP,2013-04-22 03:57:00,
2013-04-21 21:02:00,60.8,48.7,30.04,WSW,239,0.0,4.0,64,0.00,,,0.00,WUHU216WMR968SP,2013-04-22 04:02:00,
2013-04-21 21:07:00,61.0,48.9,30.04,SW,214,0.0,4.0,64,0.00,,,0.00,WUHU216WMR968SP,2013-04-22 04:07:00,
2013-04-21 21:12:00,61.2,49.1,30.04,NW,313,0.0,3.6,64,0.00,,,0.00,WUHU216WMR968SP,2013-04-22 04:12:00,
2013-04-21 21:17:00,60.8,48.7,30.04,NW,320,0.0,0.0,64,0.00,,,0.00,WUHU216WMR968SP,2013-04-22 04:17:00,
2013-04-21 21:22:00,60.4,48.7,30.01,WSW,241,0.0,2.7,65,0.00,,,0.00,WUHU216WMR968SP,2013-04-22 04:22:00,
2013-04-21 21:27:00,60.3,48.6,30.01,SW,229,0.0,4.0,65,0.00,,,0.00,WUHU216WMR968SP,2013-04-22 04:27:00,
2013-04-21 21:32:00,60.3,48.6,30.01,SSW,212,0.0,4.0,65,0.00,,,0.00,WUHU216WMR968SP,2013-04-22 04:32:00,
2013-04-21 21:37:00,60.1,48.4,30.01,SW,232,0.0,4.0,65,0.00,,,0.00,WUHU216WMR968SP,2013-04-22 04:37:00,
2013-04-21 21:42:00,60.1,48.4,30.01,SSW,207,2.7,4.0,65,0.00,,,0.00,WUHU216WMR968SP,2013-04-22 04:42:00,
2013-04-21 21:47:00,59.9,48.3,30.01,WSW,239,0.0,4.0,65,0.00,,,0.00,WUHU216WMR968SP,2013-04-22 04:47:00,
2013-04-21 21:52:00,59.9,48.3,30.01,SW,232,2.7,4.0,65,0.00,,,0.00,WUHU216WMR968SP,2013-04-22 04:52:00,
2013-04-21 21:57:00,59.7,48.5,30.01,WSW,244,2.2,4.0,66,0.00,,,0.00,WUHU216WMR968SP,2013-04-22 04:57:00,
2013-04-21 22:02:00,59.7,48.5,30.01,SW,226,0.0,3.6,66,0.00,,,0.00,WUHU216WMR968SP,2013-04-22 05:02:00,
2013-04-21 22:07:00,59.5,48.3,30.04,SW,228,0.0,2.7,66,0.00,,,0.00,WUHU216WMR968SP,2013-04-22 05:07:00,
2013-04-21 22:12:00,59.4,48.2,30.04,SW,228,0.0,0.0,66,0.00,,,0.00,WUHU216WMR968SP,2013-04-22 05:12:00,
2013-04-21 22:17:00,59.5,48.3,30.04,SW,228,0.0,0.0,66,0.00,,,0.00,WUHU216WMR968SP,2013-04-22 05:17:00,
2013-04-21 22:22:00,59.7,48.1,30.01,SW,228,0.0,0.0,65,0.00,,,0.00,WUHU216WMR968SP,2013-04-22 05:22:00,
2013-04-21 22:27:00,59.7,48.1,30.01,SW,228,0.0,0.0,65,0.00,,,0.00,WUHU216WMR968SP,2013-04-22 05:27:00,
2013-04-21 22:32:00,59.5,47.9,30.01,SW,228,0.0,0.0,65,0.00,,,0.00,WUHU216WMR968SP,2013-04-22 05:32:00,
2013-04-21 22:37:00,59.4,47.8,30.01,SW,231,0.0,0.0,65,0.00,,,0.00,WUHU216WMR968SP,2013-04-22 05:37:00,
2013-04-21 22:42:00,59.2,48.0,30.01,SW,231,0.0,0.0,66,0.00,,,0.00,WUHU216WMR968SP,2013-04-22 05:42:00,
2013-04-21 22:47:00,59.2,48.0,30.01,NW,304,0.0,0.0,66,0.00,,,0.00,WUHU216WMR968SP,2013-04-22 05:47:00,
2013-04-21 22:52:00,59.4,48.6,30.01,WSW,241,0.0,3.6,67,0.00,,,0.00,WUHU216WMR968SP,2013-04-22 05:52:00,
2013-04-21 22:57:00,59.4,49.0,30.01,SW,225,0.0,3.6,68,0.00,,,0.00,WUHU216WMR968SP,2013-04-22 05:57:00,
2013-04-21 23:02:00,59.9,49.8,30.01,WSW,248,2.7,3.6,69,0.00,,,0.00,WUHU216WMR968SP,2013-04-22 06:02:00,
2013-04-21 23:07:00,59.7,49.3,30.04,SW,223,0.0,4.0,68,0.00,,,0.00,WUHU216WMR968SP,2013-04-22 06:07:00,
2013-04-21 23:12:00,59.7,49.3,30.04,SW,225,3.1,4.0,68,0.00,,,0.00,WUHU216WMR968SP,2013-04-22 06:12:00,
2013-04-21 23:18:00,59.7,49.3,30.04,SW,234,0.0,4.0,68,0.00,,,0.00,WUHU216WMR968SP,2013-04-22 06:18:00,
2013-04-21 23:23:00,59.5,49.1,30.04,SW,231,0.0,3.1,68,0.00,,,0.00,WUHU216WMR968SP,2013-04-22 06:23:00,
2013-04-21 23:28:00,59.9,49.8,30.04,South,182,0.0,0.0,69,0.00,,,0.00,WUHU216WMR968SP,2013-04-22 06:28:00,
2013-04-21 23:33:00,60.1,50.0,30.04,SSE,155,0.0,0.0,69,0.00,,,0.00,WUHU216WMR968SP,2013-04-22 06:33:00,
2013-04-21 23:38:00,60.3,49.8,30.01,SSE,153,0.0,0.0,68,0.00,,,0.00,WUHU216WMR968SP,2013-04-22 06:38:00,
2013-04-21 23:43:00,60.4,49.5,30.01,South,180,0.0,0.0,67,0.00,,,0.00,WUHU216WMR968SP,2013-04-22 06:43:00,
2013-04-21 23:48:00,60.4,49.1,30.01,South,180,0.0,0.0,66,0.00,,,0.00,WUHU216WMR968SP,2013-04-22 06:48:00,
2013-04-21 23:53:00,60.1,48.8,30.04,South,179,0.0,0.0,66,0.00,,,0.00,WUHU216WMR968SP,2013-04-22 06:53:00,
2013-04-21 23:58:00,59.5,48.3,30.04,South,180,0.0,0.0,66,0.00,,,0.00,WUHU216WMR968SP,2013-04-22 06:58:00,